Time,TemperatureF,DewpointF,PressureIn,WindDirection,WindDirectionDegrees,WindSpeedMPH,WindSpeedGustMPH,Humidity,HourlyPrecipIn,Conditions,Clouds,dailyrainin,SolarRadiationWatts/m^2,SoftwareType,DateUTC
2013-03-17 00:00:00,30.0,30.0,29.94,ESE,105,16.0,-999.0,100,-99.99,,,-99.99,0.000000,,2013-03-17 06:00:00,
2013-03-17 00:52:00,30.0,30.0,29.94,ESE,105,16.0,-999.0,100,-99.99,,,-99.99,0.000000,,2013-03-17 06:52:00,
2013-03-17 02:00:00,30.0,30.0,29.92,SE,128,12.0,-999.0,100,-99.99,,,-99.99,0.000000,,2013-03-17 08:00:00,
2013-03-17 02:52:00,30.0,30.0,29.92,SE,128,12.0,-999.0,100,-99.99,,,-99.99,0.000000,,2013-03-17 08:52:00,
2013-03-17 03:00:00,29.0,29.0,29.91,SE,129,12.0,-999.0,100,-99.99,,,-99.99,0.000000,,2013-03-17 09:00:00,
2013-03-17 03:53:00,29.0,29.0,29.91,SE,129,12.0,-999.0,100,-99.99,,,-99.99,0.000000,,2013-03-17 09:53:00,
2013-03-17 04:00:00,30.0,30.0,29.89,SE,139,12.0,-999.0,100,-99.99,,,-99.99,0.000000,,2013-03-17 10:00:00,
2013-03-17 04:52:00,30.0,30.0,29.89,SE,139,12.0,-999.0,100,-99.99,,,-99.99,0.000000,,2013-03-17 10:52:00,
2013-03-17 05:00:00,29.0,29.0,29.87,SE,146,12.0,-999.0,100,-99.99,,,-99.99,0.000000,,2013-03-17 11:00:00,
2013-03-17 05:52:00,29.0,29.0,29.87,SE,146,12.0,-999.0,100,-99.99,,,-99.99,0.000000,,2013-03-17 11:52:00,
2013-03-17 06:00:00,30.0,29.0,29.86,SE,136,12.0,-999.0,98,-99.99,,,-99.99,0.000000,,2013-03-17 12:00:00,
2013-03-17 06:52:00,30.0,29.0,29.86,SE,136,12.0,-999.0,98,-99.99,,,-99.99,0.000000,,2013-03-17 12:52:00,
2013-03-17 07:00:00,29.0,28.0,29.84,SE,144,13.0,-999.0,97,-99.99,,,-99.99,0.920000,,2013-03-17 13:00:00,
2013-03-17 07:52:00,29.0,28.0,29.84,SE,144,13.0,-999.0,97,-99.99,,,-99.99,0.920000,,2013-03-17 13:52:00,
2013-03-17 08:00:00,30.0,29.0,29.81,SE,145,15.0,-999.0,94,-99.99,,,-99.99,47.919998,,2013-03-17 14:00:00,
2013-03-17 08:53:00,30.0,29.0,29.81,SE,145,15.0,-999.0,94,-99.99,,,-99.99,47.919998,,2013-03-17 14:53:00,
2013-03-17 09:00:00,32.0,30.0,29.80,SSE,149,19.0,-999.0,95,-99.99,,,-99.99,99.099998,,2013-03-17 15:00:00,
2013-03-17 09:53:00,32.0,30.0,29.80,SSE,149,19.0,-999.0,95,-99.99,,,-99.99,99.099998,,2013-03-17 15:53:00,
2013-03-17 10:00:00,35.0,31.0,29.78,SSE,147,19.0,-999.0,85,-99.99,,,-99.99,224.000000,,2013-03-17 16:00:00,
2013-03-17 10:52:00,35.0,31.0,29.78,SSE,147,19.0,-999.0,85,-99.99,,,-99.99,224.000000,,2013-03-17 16:52:00,
2013-03-17 11:00:00,43.0,30.0,29.76,SSE,150,21.0,-999.0,59,-99.99,,,-99.99,564.799988,,2013-03-17 17:00:00,
2013-03-17 11:53:00,43.0,30.0,29.76,SSE,150,21.0,-999.0,59,-99.99,,,-99.99,564.799988,,2013-03-17 17:53:00,
2013-03-17 12:00:00,47.0,27.0,29.72,SSE,153,24.0,-999.0,45,-99.99,,,-99.99,665.799988,,2013-03-17 18:00:00,
2013-03-17 12:52:00,47.0,27.0,29.72,SSE,153,24.0,-999.0,45,-99.99,,,-99.99,665.799988,,2013-03-17 18:52:00,
2013-03-17 13:00:00,50.0,25.0,29.67,SSE,156,24.0,-999.0,37,-99.99,,,-99.99,493.500000,,2013-03-17 19:00:00,
2013-03-17 13:53:00,50.0,25.0,29.67,SSE,156,24.0,-999.0,37,-99.99,,,-99.99,493.500000,,2013-03-17 19:53:00,
2013-03-17 14:00:00,54.0,25.0,29.64,SSE,159,24.0,-999.0,32,-99.99,,,-99.99,496.600006,,2013-03-17 20:00:00,
2013-03-17 14:52:00,54.0,25.0,29.64,SSE,159,24.0,-999.0,32,-99.99,,,-99.99,496.600006,,2013-03-17 20:52:00,
2013-03-17 15:00:00,52.0,26.0,29.59,SSE,161,24.0,-999.0,36,-99.99,,,-99.99,363.700012,,2013-03-17 21:00:00,
2013-03-17 15:52:00,52.0,26.0,29.59,SSE,161,24.0,-999.0,36,-99.99,,,-99.99,363.700012,,2013-03-17 21:52:00,
2013-03-17 16:00:00,55.0,29.0,29.60,SSE,152,21.0,-999.0,36,-99.99,,,-99.99,333.600006,,2013-03-17 22:00:00,
2013-03-17 16:53:00,55.0,29.0,29.60,SSE,152,21.0,-999.0,36,-99.99,,,-99.99,333.600006,,2013-03-17 22:53:00,